createdAt,value
2018-09-25T00:02:16.448Z,1030.04
2018-09-25T00:12:13.640Z,1030.16
2018-09-25T00:17:08.881Z,1030.11
2018-09-25T00:22:05.935Z,1030.14
2018-09-25T00:27:02.427Z,1030.12
2018-09-25T00:31:57.935Z,1030.20
2018-09-25T00:36:53.664Z,1030.10
2018-09-25T00:41:49.387Z,1030.08
2018-09-25T00:46:45.146Z,1030.33
2018-09-25T00:51:40.962Z,1030.29
2018-09-25T00:56:36.433Z,1030.27
2018-09-25T01:01:32.222Z,1030.35
2018-09-25T01:06:28.389Z,1030.32
2018-09-25T01:11:24.113Z,1030.31
2018-09-25T01:16:19.957Z,1030.37
2018-09-25T01:21:16.793Z,1030.41
2018-09-25T01:26:12.295Z,1030.37
2018-09-25T01:31:08.031Z,1030.39
2018-09-25T01:36:04.684Z,1030.39
2018-09-25T01:41:01.173Z,1030.48
2018-09-25T01:45:56.634Z,1030.48
2018-09-25T01:50:53.120Z,1030.50
2018-09-25T01:55:49.884Z,1030.36
2018-09-25T02:00:46.056Z,1030.40
2018-09-25T02:05:42.248Z,1030.42
2018-09-25T02:10:37.847Z,1030.50
2018-09-25T02:15:34.298Z,1030.44
2018-09-25T02:20:30.998Z,1030.49
2018-09-25T02:25:27.733Z,1030.52
2018-09-25T02:30:23.969Z,1030.57
2018-09-25T02:35:19.333Z,1030.62
2018-09-25T02:40:15.152Z,1030.66
2018-09-25T02:45:10.891Z,1030.60
2018-09-25T02:50:06.816Z,1030.55
2018-09-25T02:55:02.780Z,1030.58
2018-09-25T02:59:58.419Z,1030.53
2018-09-25T03:04:54.270Z,1030.74
2018-09-25T03:09:51.065Z,1030.68
2018-09-25T03:14:46.692Z,1030.65
2018-09-25T03:19:43.422Z,1030.66
2018-09-25T03:24:39.441Z,1030.69
2018-09-25T03:29:35.296Z,1030.68
2018-09-25T03:34:30.927Z,1030.64
2018-09-25T03:39:27.756Z,1030.53
2018-09-25T03:44:23.064Z,1030.65
2018-09-25T03:49:18.890Z,1030.57
2018-09-25T03:54:14.417Z,1030.60
2018-09-25T03:59:09.998Z,1030.68
2018-09-25T04:04:05.528Z,1030.70
2018-09-25T04:09:02.534Z,1030.61
2018-09-25T04:13:57.948Z,1030.79
2018-09-25T04:18:53.668Z,1030.88
2018-09-25T04:23:49.388Z,1030.85
2018-09-25T04:28:45.104Z,1030.83
2018-09-25T04:33:40.698Z,1030.92
2018-09-25T04:38:36.521Z,1030.98
2018-09-25T04:43:32.232Z,1031.00
2018-09-25T04:48:28.172Z,1031.08
2018-09-25T04:53:23.905Z,1031.12
2018-09-25T04:58:20.605Z,1031.09
2018-09-25T05:03:16.256Z,1031.10
2018-09-25T05:08:13.217Z,1031.09
2018-09-25T05:13:09.582Z,1031.18
2018-09-25T05:18:04.791Z,1031.17
2018-09-25T05:23:00.587Z,1031.12
2018-09-25T05:27:55.974Z,1031.12
2018-09-25T05:32:51.579Z,1031.19
2018-09-25T05:37:47.303Z,1031.19
2018-09-25T05:42:43.296Z,1031.27
2018-09-25T05:47:38.797Z,1031.29
2018-09-25T05:52:34.403Z,1031.39
2018-09-25T05:57:30.274Z,1031.44
2018-09-25T06:02:26.419Z,1031.52
2018-09-25T06:07:22.404Z,1031.52
2018-09-25T06:12:18.212Z,1031.52
2018-09-25T06:17:14.086Z,1031.55
2018-09-25T06:22:10.846Z,1031.57
2018-09-25T06:27:06.336Z,1031.56
2018-09-25T06:32:02.235Z,1031.73
2018-09-25T06:36:59.995Z,1031.76
2018-09-25T06:41:55.567Z,1031.74
2018-09-25T06:46:51.671Z,1031.79
2018-09-25T06:51:47.353Z,1031.97
2018-09-25T06:56:43.282Z,1031.99
2018-09-25T07:01:39.090Z,1032.01
2018-09-25T07:06:35.278Z,1031.98
2018-09-25T07:11:31.032Z,1032.03
2018-09-25T07:16:26.824Z,1032.15
2018-09-25T07:21:23.736Z,1032.21
2018-09-25T07:26:20.273Z,1032.25
2018-09-25T07:31:15.827Z,1032.22
2018-09-25T07:36:11.958Z,1032.37
2018-09-25T07:41:07.856Z,1032.37
2018-09-25T07:46:04.846Z,1032.38
2018-09-25T07:51:01.448Z,1032.30
2018-09-25T07:55:57.578Z,1032.53
2018-09-25T08:00:54.505Z,1032.64
2018-09-25T08:05:52.140Z,1032.65
2018-09-25T08:10:48.002Z,1032.68
2018-09-25T08:15:44.196Z,1032.69
2018-09-25T08:20:40.890Z,1032.72
2018-09-25T08:25:36.163Z,1032.66
2018-09-25T08:30:32.130Z,1032.74
2018-09-25T08:40:28.081Z,1032.84
2018-09-25T08:45:23.882Z,1032.86
2018-09-25T08:50:19.512Z,1032.82
2018-09-25T08:55:16.135Z,1032.91
2018-09-25T09:00:12.165Z,1032.98
2018-09-25T09:05:08.272Z,1032.87
2018-09-25T09:10:04.751Z,1032.86
2018-09-25T09:15:00.371Z,1032.89
2018-09-25T09:19:56.752Z,1032.91
2018-09-25T09:24:52.481Z,1032.92
2018-09-25T09:29:48.773Z,1032.97
2018-09-25T09:34:46.059Z,1033.00
2018-09-25T09:39:41.692Z,1033.02
2018-09-25T09:44:38.345Z,1032.98
2018-09-25T09:49:35.268Z,1032.97
2018-09-25T09:54:31.938Z,1032.98
2018-09-25T09:59:29.778Z,1032.92
2018-09-25T10:04:26.069Z,1033.00
2018-09-25T10:09:22.499Z,1032.95
2018-09-25T10:14:18.591Z,1033.08
2018-09-25T10:19:14.545Z,1033.03
2018-09-25T10:24:11.853Z,1033.10
2018-09-25T10:29:07.539Z,1033.07
2018-09-25T10:34:04.431Z,1033.22
2018-09-25T10:38:59.828Z,1033.19
2018-09-25T10:43:56.850Z,1033.03
2018-09-25T10:48:53.579Z,1032.98
2018-09-25T10:53:49.184Z,1032.92
2018-09-25T10:58:46.155Z,1033.00
2018-09-25T11:03:42.135Z,1032.98
2018-09-25T11:08:38.730Z,1033.02
2018-09-25T11:13:36.468Z,1033.00
2018-09-25T11:18:35.454Z,1033.07
2018-09-25T11:23:31.327Z,1033.08
2018-09-25T11:28:27.500Z,1033.06
2018-09-25T11:33:23.542Z,1032.81
2018-09-25T11:38:20.003Z,1032.87
2018-09-25T11:43:16.563Z,1032.71
2018-09-25T11:48:13.629Z,1032.74
2018-09-25T11:53:09.760Z,1032.66
2018-09-25T11:58:06.101Z,1032.86
2018-09-25T12:03:02.731Z,1032.87
2018-09-25T12:07:59.123Z,1032.71
2018-09-25T12:12:54.065Z,1032.79
2018-09-25T12:17:49.810Z,1032.68
2018-09-25T12:22:45.987Z,1032.63
2018-09-25T12:27:42.018Z,1032.47
2018-09-25T12:32:37.644Z,1032.43
2018-09-25T12:37:34.201Z,1032.36
2018-09-25T12:42:29.417Z,1032.35
2018-09-25T12:47:25.711Z,1032.19
2018-09-25T12:52:21.175Z,1032.11
2018-09-25T12:57:16.951Z,1032.05
2018-09-25T13:02:14.119Z,1032.04
2018-09-25T13:07:09.571Z,1032.14
2018-09-25T13:12:06.600Z,1032.03
2018-09-25T13:17:02.170Z,1032.03
2018-09-25T13:21:59.130Z,1031.91
2018-09-25T13:26:54.272Z,1031.97
2018-09-25T13:31:50.074Z,1032.10
2018-09-25T13:36:47.261Z,1031.98
2018-09-25T13:46:45.557Z,1031.89
2018-09-25T13:51:41.319Z,1031.71
2018-09-25T13:56:37.070Z,1031.93
2018-09-25T14:01:32.910Z,1031.79
2018-09-25T14:06:29.418Z,1031.72
2018-09-25T14:11:25.373Z,1031.62
2018-09-25T14:16:21.002Z,1031.51
2018-09-25T14:21:17.311Z,1031.50
2018-09-25T14:26:13.097Z,1031.43
2018-09-25T14:31:09.164Z,1031.36
2018-09-25T14:36:06.637Z,1031.30
2018-09-25T14:41:02.017Z,1031.38
2018-09-25T14:45:58.043Z,1031.24
2018-09-25T14:50:55.009Z,1031.25
2018-09-25T14:55:51.701Z,1031.22
2018-09-25T15:00:47.509Z,1031.16
2018-09-25T15:05:43.388Z,1031.20
2018-09-25T15:10:38.998Z,1031.11
2018-09-25T15:15:34.926Z,1030.99
2018-09-25T15:20:31.045Z,1031.00
2018-09-25T15:25:26.571Z,1031.09
2018-09-25T15:30:23.501Z,1031.13
2018-09-25T15:35:19.309Z,1031.02
2018-09-25T15:40:16.632Z,1031.07
2018-09-25T15:45:12.569Z,1031.09
2018-09-25T15:50:09.377Z,1031.19
2018-09-25T15:55:04.917Z,1031.15
2018-09-25T16:00:01.043Z,1031.09
2018-09-25T16:04:57.852Z,1031.18
2018-09-25T16:09:53.369Z,1031.05
2018-09-25T16:14:49.197Z,1031.17
2018-09-25T16:19:45.337Z,1031.19
2018-09-25T16:24:40.994Z,1031.24
2018-09-25T16:29:36.971Z,1031.26
2018-09-25T16:34:33.681Z,1031.20
2018-09-25T16:39:29.322Z,1031.12
2018-09-25T16:44:25.570Z,1031.24
2018-09-25T16:49:21.260Z,1031.22
2018-09-25T16:54:17.395Z,1031.19
2018-09-25T16:59:13.287Z,1031.20
2018-09-25T17:04:09.610Z,1031.33
2018-09-25T17:09:05.396Z,1031.33
2018-09-25T17:14:01.272Z,1031.37
2018-09-25T17:18:57.269Z,1031.43
2018-09-25T17:23:53.007Z,1031.27
2018-09-25T17:28:48.347Z,1031.24
2018-09-25T17:33:44.731Z,1031.26
2018-09-25T17:38:40.272Z,1031.29
2018-09-25T17:43:36.167Z,1031.21
2018-09-25T17:48:33.074Z,1031.21
2018-09-25T17:53:28.365Z,1031.20
2018-09-25T17:58:24.141Z,1031.19
2018-09-25T18:03:19.894Z,1031.21
2018-09-25T18:08:15.788Z,1031.23
2018-09-25T18:13:11.909Z,1031.25
2018-09-25T18:18:07.749Z,1031.18
2018-09-25T18:23:03.518Z,1031.19
2018-09-25T18:27:59.280Z,1031.10
2018-09-25T18:32:55.150Z,1031.06
2018-09-25T18:37:51.133Z,1031.16
2018-09-25T18:42:46.959Z,1031.25
2018-09-25T18:47:42.648Z,1031.20
2018-09-25T18:52:38.570Z,1031.21
2018-09-25T18:57:34.546Z,1031.40
2018-09-25T19:02:30.113Z,1031.36
2018-09-25T19:07:25.766Z,1031.35
2018-09-25T19:12:22.470Z,1031.35
2018-09-25T19:17:18.902Z,1031.36
2018-09-25T19:22:15.338Z,1031.45
2018-09-25T19:27:10.655Z,1031.45
2018-09-25T19:32:07.762Z,1031.28
2018-09-25T19:37:05.069Z,1031.18
2018-09-25T19:42:02.106Z,1031.10
2018-09-25T19:46:57.582Z,1031.21
2018-09-25T19:51:53.808Z,1031.30
2018-09-25T19:56:49.493Z,1031.16
2018-09-25T20:01:45.091Z,1031.07
2018-09-25T20:06:40.795Z,1030.98
2018-09-25T20:11:37.912Z,1030.88
2018-09-25T20:16:34.471Z,1030.96
2018-09-25T20:21:31.012Z,1030.94
2018-09-25T20:26:26.467Z,1030.99
2018-09-25T20:31:22.125Z,1030.79
2018-09-25T20:36:18.096Z,1030.74
2018-09-25T20:41:14.066Z,1030.88
2018-09-25T20:46:10.827Z,1030.92
2018-09-25T20:51:06.442Z,1030.92
2018-09-25T20:56:03.102Z,1030.86
2018-09-25T21:00:58.689Z,1030.87
2018-09-25T21:05:54.549Z,1030.82
2018-09-25T21:10:50.955Z,1030.75
2018-09-25T21:15:46.653Z,1030.77
2018-09-25T21:20:43.140Z,1030.68
2018-09-25T21:25:38.795Z,1030.56
2018-09-25T21:30:34.954Z,1030.45
2018-09-25T21:35:30.743Z,1030.19
2018-09-25T21:40:26.272Z,1030.20
2018-09-25T21:45:21.901Z,1030.14
2018-09-25T21:50:18.503Z,1030.23
2018-09-25T21:55:13.880Z,1030.32
2018-09-25T22:00:09.710Z,1030.29
2018-09-25T22:05:05.348Z,1030.28
2018-09-25T22:10:02.248Z,1030.26
2018-09-25T22:14:57.546Z,1030.10
2018-09-25T22:19:53.312Z,1030.05
2018-09-25T22:24:49.147Z,1030.00
2018-09-25T22:29:45.106Z,1029.99
2018-09-25T22:34:41.516Z,1029.86
2018-09-25T22:39:37.097Z,1029.88
2018-09-25T22:44:32.967Z,1029.69
2018-09-25T22:49:28.527Z,1029.84
2018-09-25T22:54:25.497Z,1029.82
2018-09-25T22:59:21.918Z,1029.91
2018-09-25T23:04:17.114Z,1029.90
2018-09-25T23:09:12.761Z,1030.04
2018-09-25T23:14:09.624Z,1030.05
2018-09-25T23:19:04.984Z,1030.05
2018-09-25T23:24:01.223Z,1030.09
2018-09-25T23:28:57.642Z,1030.06
2018-09-25T23:33:53.646Z,1029.98
2018-09-25T23:38:49.423Z,1029.84
2018-09-25T23:43:45.617Z,1029.89
2018-09-25T23:48:41.617Z,1029.81
2018-09-25T23:53:37.495Z,1029.73
2018-09-25T23:58:34.890Z,1029.55
